Startpagina
METAR-TAF:

METAR-TAF

Vliegvelden :

Djedda, Saoedi-Arabië

Internationale luchthaven Koning Abdoel Aziz

breedte: 21-42N, lengte: 039-11E, hoogte: 15 m

Actueel weer

Dit bericht is 17 minuten geleden gemaakt, om 21:00 UTC
Wind 3 kt uit het noorden
Temperatuur 23°C
Vochtigheid 61%
Druk 1013 hPa
Zicht 10 km of meer
geen wolken onder 1500 m en geen cumulonimbus

METAR: OEJN 162100Z 36003KT CAVOK 23/15 Q1013 NOSIG

Tijdstip: 00:17 (21:17 UTC)

Verwachting

Dit bericht is 4 uur en het 17 minuten geleden gemaakt, om 17:00 UTC
Verwachting geldig van 16 om 18 UTC tot 17 om 24 UTC
Wind 8 kt uit het oosten
Zicht: 8000 m
Tijdelijke
van 16 om 18 UTC tot 17 om 06 UTC
Zicht: 4000 m
Heiigheid, verspreid stof
Wijzigt naar
van 17 om 06 UTC tot 17 om 08 UTC
Wind 16 kt uit het westen

TAF: OEJN 161700Z 1618/1724 09008KT 8000 NSC TEMPO 1618/1706 4000 HZ DU BECMG 1706/1708 28016KT

Waarnemingen en weersverwachtingen van meer dan 4000 vliegvelden (METAR en TAF).

De beschikbare stations zijn de gele en rode punten op de kaart.

Ga met uw muis naar het station om de naam te zien.

Klik dan om waarnemingen en weersverwachtingen te zien.

kaart wijzigen: klik op de groene knoppen met een zwart kruis om in te zoomen, op de groene knop met een streepje om uit te zoomen of op de groene pijlen voor aangrenzende kaarten.


METAR-TAF: